sensor_id;sensor_type;location;lat;lon;timestamp;P1;durP1;ratioP1;P2;durP2;ratioP2
75922;SDS011;64602;47.542;19.090;2023-03-14T06:28:01;9.23;;;4.62;;
75922;SDS011;64602;47.542;19.090;2023-03-14T06:33:03;10.17;;;5.03;;
75922;SDS011;64602;47.542;19.090;2023-03-14T06:38:05;9.00;;;4.18;;
75922;SDS011;64602;47.542;19.090;2023-03-14T06:43:07;10.05;;;4.68;;
75922;SDS011;64602;47.542;19.090;2023-03-14T06:48:09;10.13;;;4.97;;
75922;SDS011;64602;47.542;19.090;2023-03-14T06:53:17;10.17;;;4.67;;
75922;SDS011;64602;47.542;19.090;2023-03-14T06:58:19;9.10;;;4.68;;
75922;SDS011;64602;47.542;19.090;2023-03-14T07:03:22;11.63;;;5.87;;
75922;SDS011;64602;47.542;19.090;2023-03-14T07:08:24;13.13;;;4.63;;
75922;SDS011;64602;47.542;19.090;2023-03-14T07:13:26;12.70;;;5.72;;
75922;SDS011;64602;47.542;19.090;2023-03-14T07:18:28;11.52;;;5.15;;
75922;SDS011;64602;47.542;19.090;2023-03-14T07:23:30;10.83;;;4.97;;
75922;SDS011;64602;47.542;19.090;2023-03-14T07:28:32;9.45;;;5.28;;
75922;SDS011;64602;47.542;19.090;2023-03-14T07:33:34;9.95;;;4.60;;
75922;SDS011;64602;47.542;19.090;2023-03-14T07:38:36;11.63;;;5.07;;
75922;SDS011;64602;47.542;19.090;2023-03-14T07:43:39;10.43;;;5.00;;
75922;SDS011;64602;47.542;19.090;2023-03-14T07:48:41;11.45;;;5.47;;
75922;SDS011;64602;47.542;19.090;2023-03-14T07:53:43;10.05;;;5.25;;
75922;SDS011;64602;47.542;19.090;2023-03-14T07:58:46;15.30;;;6.00;;
75922;SDS011;64602;47.542;19.090;2023-03-14T08:03:48;8.65;;;5.10;;
75922;SDS011;64602;47.542;19.090;2023-03-14T08:08:50;10.48;;;5.20;;
75922;SDS011;64602;47.542;19.090;2023-03-14T08:13:52;8.60;;;5.20;;
75922;SDS011;64602;47.542;19.090;2023-03-14T08:18:54;10.85;;;5.15;;
75922;SDS011;64602;47.542;19.090;2023-03-14T08:23:57;11.48;;;5.50;;
75922;SDS011;64602;47.542;19.090;2023-03-14T08:28:59;11.70;;;5.50;;
75922;SDS011;64602;47.542;19.090;2023-03-14T08:34:02;9.63;;;4.60;;
75922;SDS011;64602;47.542;19.090;2023-03-14T08:39:04;12.77;;;4.85;;
75922;SDS011;64602;47.542;19.090;2023-03-14T08:44:09;12.18;;;4.80;;
75922;SDS011;64602;47.542;19.090;2023-03-14T08:49:13;10.33;;;4.53;;
75922;SDS011;64602;47.542;19.090;2023-03-14T08:54:16;10.48;;;5.10;;
75922;SDS011;64602;47.542;19.090;2023-03-14T08:59:18;11.23;;;4.18;;
75922;SDS011;64602;47.542;19.090;2023-03-14T09:04:21;9.33;;;3.87;;
75922;SDS011;64602;47.542;19.090;2023-03-14T09:09:24;8.70;;;3.65;;
75922;SDS011;64602;47.542;19.090;2023-03-14T09:14:26;8.25;;;3.58;;
75922;SDS011;64602;47.542;19.090;2023-03-14T09:19:28;6.33;;;3.33;;
75922;SDS011;64602;47.542;19.090;2023-03-14T09:24:31;8.73;;;3.00;;
75922;SDS011;64602;47.542;19.090;2023-03-14T09:29:33;6.43;;;3.45;;
75922;SDS011;64602;47.542;19.090;2023-03-14T09:34:35;8.38;;;3.42;;
75922;SDS011;64602;47.542;19.090;2023-03-14T09:39:38;14.77;;;3.63;;
75922;SDS011;64602;47.542;19.090;2023-03-14T09:44:42;8.30;;;3.53;;
75922;SDS011;64602;47.542;19.090;2023-03-14T09:49:53;9.00;;;3.10;;
75922;SDS011;64602;47.542;19.090;2023-03-14T09:54:57;8.13;;;3.30;;
75922;SDS011;64602;47.542;19.090;2023-03-14T10:00:06;6.80;;;3.42;;
75922;SDS011;64602;47.542;19.090;2023-03-14T10:05:29;13.30;;;3.03;;
75922;SDS011;64602;47.542;19.090;2023-03-14T10:10:31;10.20;;;3.10;;
75922;SDS011;64602;47.542;19.090;2023-03-14T10:15:34;7.00;;;2.80;;
75922;SDS011;64602;47.542;19.090;2023-03-14T10:20:44;7.53;;;2.97;;
75922;SDS011;64602;47.542;19.090;2023-03-14T10:26:12;9.45;;;3.10;;
75922;SDS011;64602;47.542;19.090;2023-03-14T10:31:15;9.87;;;2.53;;
75922;SDS011;64602;47.542;19.090;2023-03-14T10:36:19;9.80;;;2.40;;
75922;SDS011;64602;47.542;19.090;2023-03-14T10:41:25;5.53;;;0.98;;
75922;SDS011;64602;47.542;19.090;2023-03-14T10:46:30;6.73;;;0.90;;
75922;SDS011;64602;47.542;19.090;2023-03-14T10:51:34;5.05;;;0.60;;
75922;SDS011;64602;47.542;19.090;2023-03-14T10:56:36;4.72;;;0.80;;
75922;SDS011;64602;47.542;19.090;2023-03-14T11:01:44;2.90;;;0.80;;
75922;SDS011;64602;47.542;19.090;2023-03-14T11:07:02;6.43;;;1.20;;
75922;SDS011;64602;47.542;19.090;2023-03-14T11:17:38;5.45;;;0.88;;
75922;SDS011;64602;47.542;19.090;2023-03-14T11:22:56;4.77;;;0.90;;
75922;SDS011;64602;47.542;19.090;2023-03-14T11:39:11;7.13;;;1.00;;
75922;SDS011;64602;47.542;19.090;2023-03-14T11:44:25;4.20;;;0.70;;
75922;SDS011;64602;47.542;19.090;2023-03-14T11:54:43;2.90;;;0.50;;
75922;SDS011;64602;47.542;19.090;2023-03-14T12:21:49;5.97;;;0.50;;
75922;SDS011;64602;47.542;19.090;2023-03-14T12:26:56;5.05;;;0.68;;
75922;SDS011;64602;47.542;19.090;2023-03-14T12:47:49;4.40;;;0.63;;
75922;SDS011;64602;47.542;19.090;2023-03-14T12:58:44;2.50;;;0.70;;
75922;SDS011;64602;47.542;19.090;2023-03-14T13:03:57;1.98;;;0.50;;
75922;SDS011;64602;47.542;19.090;2023-03-14T13:09:34;5.20;;;0.60;;
75922;SDS011;64602;47.542;19.090;2023-03-14T13:14:31;3.40;;;0.80;;
75922;SDS011;64602;47.542;19.090;2023-03-14T13:19:33;4.95;;;0.80;;
75922;SDS011;64602;47.542;19.090;2023-03-14T13:24:36;7.93;;;0.70;;
75922;SDS011;64602;47.542;19.090;2023-03-14T13:29:38;3.75;;;1.05;;
75922;SDS011;64602;47.542;19.090;2023-03-14T13:34:40;5.45;;;0.80;;
75922;SDS011;64602;47.542;19.090;2023-03-14T13:39:43;2.30;;;0.60;;
75922;SDS011;64602;47.542;19.090;2023-03-14T13:44:51;3.70;;;0.70;;
75922;SDS011;64602;47.542;19.090;2023-03-14T13:49:54;2.72;;;0.82;;
75922;SDS011;64602;47.542;19.090;2023-03-14T13:54:57;4.12;;;0.80;;
75922;SDS011;64602;47.542;19.090;2023-03-14T14:00:06;5.37;;;0.77;;
75922;SDS011;64602;47.542;19.090;2023-03-14T14:05:18;3.80;;;0.60;;
75922;SDS011;64602;47.542;19.090;2023-03-14T14:10:21;4.47;;;0.85;;
75922;SDS011;64602;47.542;19.090;2023-03-14T14:15:25;3.00;;;0.90;;
75922;SDS011;64602;47.542;19.090;2023-03-14T14:20:34;4.00;;;1.02;;
75922;SDS011;64602;47.542;19.090;2023-03-14T14:25:40;5.37;;;1.00;;
75922;SDS011;64602;47.542;19.090;2023-03-14T14:30:44;5.07;;;1.30;;
75922;SDS011;64602;47.542;19.090;2023-03-14T14:35:54;2.90;;;0.90;;
75922;SDS011;64602;47.542;19.090;2023-03-14T14:40:59;3.37;;;0.93;;
75922;SDS011;64602;47.542;19.090;2023-03-14T14:46:05;5.90;;;0.90;;
75922;SDS011;64602;47.542;19.090;2023-03-14T14:51:09;2.93;;;0.90;;
75922;SDS011;64602;47.542;19.090;2023-03-14T14:56:19;6.78;;;1.45;;
75922;SDS011;64602;47.542;19.090;2023-03-14T15:01:31;4.85;;;1.20;;
75922;SDS011;64602;47.542;19.090;2023-03-14T15:06:38;5.77;;;1.20;;
75922;SDS011;64602;47.542;19.090;2023-03-14T15:11:43;7.65;;;2.45;;
75922;SDS011;64602;47.542;19.090;2023-03-14T15:16:46;5.87;;;2.87;;
75922;SDS011;64602;47.542;19.090;2023-03-14T15:21:48;10.43;;;2.90;;
75922;SDS011;64602;47.542;19.090;2023-03-14T15:26:50;7.90;;;2.70;;
75922;SDS011;64602;47.542;19.090;2023-03-14T15:31:53;9.48;;;2.58;;
75922;SDS011;64602;47.542;19.090;2023-03-14T15:36:55;5.75;;;2.67;;
75922;SDS011;64602;47.542;19.090;2023-03-14T15:41:57;5.13;;;2.20;;
75922;SDS011;64602;47.542;19.090;2023-03-14T15:46:59;7.70;;;2.33;;
75922;SDS011;64602;47.542;19.090;2023-03-14T15:52:01;6.53;;;2.33;;
75922;SDS011;64602;47.542;19.090;2023-03-14T15:57:03;2.40;;;0.57;;
75922;SDS011;64602;47.542;19.090;2023-03-14T16:02:09;2.75;;;0.60;;
75922;SDS011;64602;47.542;19.090;2023-03-14T16:07:12;2.85;;;0.65;;
75922;SDS011;64602;47.542;19.090;2023-03-14T16:12:14;2.63;;;0.80;;
75922;SDS011;64602;47.542;19.090;2023-03-14T16:17:16;4.00;;;0.93;;
75922;SDS011;64602;47.542;19.090;2023-03-14T16:22:18;3.25;;;0.88;;
75922;SDS011;64602;47.542;19.090;2023-03-14T16:27:20;3.37;;;0.95;;
75922;SDS011;64602;47.542;19.090;2023-03-14T16:32:22;2.63;;;0.90;;
75922;SDS011;64602;47.542;19.090;2023-03-14T16:37:25;2.87;;;0.95;;
75922;SDS011;64602;47.542;19.090;2023-03-14T16:42:28;3.37;;;1.00;;
75922;SDS011;64602;47.542;19.090;2023-03-14T16:47:30;3.03;;;1.00;;
75922;SDS011;64602;47.542;19.090;2023-03-14T16:52:32;3.92;;;1.55;;
75922;SDS011;64602;47.542;19.090;2023-03-14T16:57:34;3.92;;;1.40;;
75922;SDS011;64602;47.542;19.090;2023-03-14T17:02:36;4.13;;;1.40;;
75922;SDS011;64602;47.542;19.090;2023-03-14T17:07:39;2.93;;;1.20;;
75922;SDS011;64602;47.542;19.090;2023-03-14T17:12:42;2.75;;;1.10;;
75922;SDS011;64602;47.542;19.090;2023-03-14T17:17:45;5.32;;;1.10;;
75922;SDS011;64602;47.542;19.090;2023-03-14T17:22:47;4.43;;;0.90;;
75922;SDS011;64602;47.542;19.090;2023-03-14T17:27:49;2.65;;;0.88;;
75922;SDS011;64602;47.542;19.090;2023-03-14T17:32:51;6.03;;;0.95;;
75922;SDS011;64602;47.542;19.090;2023-03-14T17:37:53;3.13;;;0.70;;
75922;SDS011;64602;47.542;19.090;2023-03-14T17:42:56;1.58;;;0.60;;
75922;SDS011;64602;47.542;19.090;2023-03-14T17:47:58;3.37;;;0.90;;
75922;SDS011;64602;47.542;19.090;2023-03-14T17:53:00;2.53;;;0.60;;
75922;SDS011;64602;47.542;19.090;2023-03-14T17:58:02;2.40;;;0.53;;
75922;SDS011;64602;47.542;19.090;2023-03-14T18:03:04;1.70;;;0.62;;
75922;SDS011;64602;47.542;19.090;2023-03-14T18:08:08;4.10;;;1.15;;
75922;SDS011;64602;47.542;19.090;2023-03-14T18:13:14;2.47;;;0.63;;
75922;SDS011;64602;47.542;19.090;2023-03-14T18:18:16;4.18;;;0.80;;
75922;SDS011;64602;47.542;19.090;2023-03-14T18:23:21;1.65;;;0.47;;
75922;SDS011;64602;47.542;19.090;2023-03-14T18:28:23;3.40;;;1.47;;
75922;SDS011;64602;47.542;19.090;2023-03-14T18:33:26;2.22;;;0.70;;
75922;SDS011;64602;47.542;19.090;2023-03-14T18:38:28;1.67;;;0.50;;
75922;SDS011;64602;47.542;19.090;2023-03-14T18:43:30;2.80;;;0.50;;
75922;SDS011;64602;47.542;19.090;2023-03-14T18:48:35;2.00;;;0.60;;
75922;SDS011;64602;47.542;19.090;2023-03-14T18:53:43;1.52;;;0.43;;
75922;SDS011;64602;47.542;19.090;2023-03-14T18:58:45;1.58;;;0.40;;
75922;SDS011;64602;47.542;19.090;2023-03-14T19:03:48;1.70;;;0.50;;
75922;SDS011;64602;47.542;19.090;2023-03-14T19:08:50;2.20;;;0.73;;
75922;SDS011;64602;47.542;19.090;2023-03-14T19:13:52;1.80;;;0.45;;
75922;SDS011;64602;47.542;19.090;2023-03-14T19:18:57;3.10;;;0.50;;
75922;SDS011;64602;47.542;19.090;2023-03-14T19:24:00;4.80;;;0.80;;
75922;SDS011;64602;47.542;19.090;2023-03-14T19:29:03;3.15;;;1.00;;
75922;SDS011;64602;47.542;19.090;2023-03-14T19:34:06;3.40;;;1.10;;
75922;SDS011;64602;47.542;19.090;2023-03-14T19:39:09;3.30;;;1.10;;
75922;SDS011;64602;47.542;19.090;2023-03-14T19:44:11;3.22;;;1.17;;
75922;SDS011;64602;47.542;19.090;2023-03-14T19:49:13;2.62;;;1.00;;
75922;SDS011;64602;47.542;19.090;2023-03-14T19:54:16;4.83;;;1.40;;
75922;SDS011;64602;47.542;19.090;2023-03-14T19:59:18;5.37;;;1.67;;
75922;SDS011;64602;47.542;19.090;2023-03-14T20:04:20;3.80;;;1.85;;
75922;SDS011;64602;47.542;19.090;2023-03-14T20:09:22;3.87;;;1.83;;
75922;SDS011;64602;47.542;19.090;2023-03-14T20:14:24;5.15;;;1.70;;
75922;SDS011;64602;47.542;19.090;2023-03-14T20:19:26;8.80;;;1.30;;
75922;SDS011;64602;47.542;19.090;2023-03-14T20:24:29;4.33;;;1.10;;
75922;SDS011;64602;47.542;19.090;2023-03-14T20:29:33;4.63;;;1.93;;
75922;SDS011;64602;47.542;19.090;2023-03-14T20:34:35;4.37;;;2.22;;
75922;SDS011;64602;47.542;19.090;2023-03-14T20:39:37;2.35;;;0.65;;
75922;SDS011;64602;47.542;19.090;2023-03-14T20:44:39;2.47;;;0.60;;
75922;SDS011;64602;47.542;19.090;2023-03-14T20:49:41;3.80;;;0.62;;
75922;SDS011;64602;47.542;19.090;2023-03-14T20:54:44;2.25;;;0.60;;
75922;SDS011;64602;47.542;19.090;2023-03-14T20:59:46;2.10;;;0.50;;
75922;SDS011;64602;47.542;19.090;2023-03-14T21:04:48;2.35;;;0.90;;
75922;SDS011;64602;47.542;19.090;2023-03-14T21:09:51;2.92;;;1.50;;
75922;SDS011;64602;47.542;19.090;2023-03-14T21:14:53;3.13;;;1.20;;
75922;SDS011;64602;47.542;19.090;2023-03-14T21:19:55;4.50;;;1.77;;
75922;SDS011;64602;47.542;19.090;2023-03-14T21:25:01;5.80;;;2.25;;
75922;SDS011;64602;47.542;19.090;2023-03-14T21:30:03;6.65;;;2.83;;
75922;SDS011;64602;47.542;19.090;2023-03-14T21:35:06;5.70;;;3.07;;
75922;SDS011;64602;47.542;19.090;2023-03-14T21:40:08;6.55;;;2.95;;
75922;SDS011;64602;47.542;19.090;2023-03-14T21:45:11;8.10;;;3.70;;
